Accueil
METAR-TAF:

METAR-TAF

Aéroports :

Morrisville-Stowe State Airport

Morrisville, Vermont, États-Unis

latitude: 44-32-10N, longitude: 072-36-58W, altitude: 223 m

Observation

Le bulletin a été fait il y a 49 minutes, à 09:54 UTC
Vent 9 kt de nord/nord-ouest avec des rafales jusqu'à 14 kt
Température 14°C
Humidité 63%
Pression 1016 hPa
Visibilité: 16.1 km
Nuages fragmentés à une hauteur de 4300 ft
Nuages fragmentés à une hauteur de 5000 ft
Ciel couvert à une hauteur de 6500 ft

METAR: KMVL 220954Z AUTO 34009G14KT 10SM BKN043 BKN050 OVC065 14/07 A2999 RMK AO2 PRESRR SLP157 T01440072

Heure: 06:43 (10:43 UTC)


TAF: absent

Observations et prévisions météorologiques de plus de 4000 aéroports (messages METAR et TAF).

Les stations disponibles sont représentées par des disques jaunes et rouges sur la carte.

Passer la souris dessus pour voir le nom de la station.

Cliquer dessus pour voir les observations et prévisions météorologiques.

Pour changer de carte: cliquez sur les boutons verts avec une croix noire pour zoomer, sur le bouton vert avec un tiret pour effectuer un zoom arrière, ou sur les flèches vertes pour les cartes adjacentes.


METAR-TAF: